createdAt,value
2017-10-10T00:01:47.650Z,12.60
2017-10-10T00:04:16.622Z,12.10
2017-10-10T00:06:45.603Z,12.10
2017-10-10T00:09:14.569Z,12.10
2017-10-10T00:11:43.560Z,12.10
2017-10-10T00:14:13.678Z,12.10
2017-10-10T00:16:43.063Z,12.20
2017-10-10T00:19:12.028Z,12.20
2017-10-10T00:21:41.871Z,12.30
2017-10-10T00:24:11.594Z,12.20
2017-10-10T00:26:40.641Z,12.10
2017-10-10T00:29:09.620Z,12.20
2017-10-10T00:31:38.619Z,12.30
2017-10-10T00:34:07.956Z,12.30
2017-10-10T00:36:36.942Z,12.40
2017-10-10T00:39:05.905Z,12.50
2017-10-10T00:41:35.665Z,12.40
2017-10-10T00:44:04.620Z,12.40
2017-10-10T00:46:33.603Z,12.50
2017-10-10T00:49:02.581Z,12.50
2017-10-10T00:51:31.547Z,12.60
2017-10-10T00:54:00.512Z,12.50
2017-10-10T00:56:29.492Z,12.40
2017-10-10T00:58:58.510Z,12.30
2017-10-10T01:01:27.460Z,12.40
2017-10-10T01:03:57.201Z,12.50
2017-10-10T01:06:26.589Z,12.60
2017-10-10T01:08:55.545Z,12.50
2017-10-10T01:11:24.644Z,12.60
2017-10-10T01:13:53.585Z,12.50
2017-10-10T01:16:22.563Z,12.40
2017-10-10T01:18:51.527Z,12.50
2017-10-10T01:21:21.333Z,12.40
2017-10-10T01:23:50.699Z,12.50
2017-10-10T01:26:20.446Z,12.50
2017-10-10T01:28:50.164Z,12.50
2017-10-10T01:31:19.546Z,12.50
2017-10-10T01:33:49.276Z,12.40
2017-10-10T01:36:18.741Z,12.50
2017-10-10T01:38:47.860Z,12.50
2017-10-10T01:41:17.617Z,12.50
2017-10-10T01:43:46.965Z,12.60
2017-10-10T01:46:16.341Z,12.40
2017-10-10T01:48:45.301Z,12.50
2017-10-10T01:51:14.702Z,12.50
2017-10-10T01:53:43.678Z,12.50
2017-10-10T01:56:12.720Z,12.50
2017-10-10T01:58:41.704Z,12.50
2017-10-10T02:01:11.428Z,12.50
2017-10-10T02:03:40.807Z,12.60
2017-10-10T02:06:09.768Z,12.50
2017-10-10T02:08:38.751Z,12.70
2017-10-10T02:11:07.753Z,12.70
2017-10-10T02:13:36.874Z,12.70
2017-10-10T02:16:05.812Z,12.80
2017-10-10T02:18:35.524Z,12.70
2017-10-10T02:21:05.277Z,12.60
2017-10-10T02:23:35.412Z,12.60
2017-10-10T02:26:04.384Z,12.50
2017-10-10T02:28:33.374Z,12.40
2017-10-10T02:31:02.324Z,12.40
2017-10-10T02:33:31.712Z,12.50
2017-10-10T02:36:00.755Z,12.50
2017-10-10T02:38:30.524Z,12.40
2017-10-10T02:40:59.617Z,12.50
2017-10-10T02:43:29.337Z,12.50
2017-10-10T02:45:59.045Z,12.40
2017-10-10T02:48:28.037Z,12.50
2017-10-10T02:50:57.392Z,12.50
2017-10-10T02:53:26.402Z,12.60
2017-10-10T02:55:55.362Z,12.70
2017-10-10T02:58:24.354Z,12.60
2017-10-10T03:00:54.085Z,12.50
2017-10-10T03:03:23.101Z,12.60
2017-10-10T03:05:52.081Z,12.60
2017-10-10T03:08:21.056Z,12.70
2017-10-10T03:10:50.419Z,12.60
2017-10-10T03:13:19.400Z,12.50
2017-10-10T03:15:48.398Z,12.60
2017-10-10T03:18:17.395Z,12.50
2017-10-10T03:20:46.340Z,12.60
2017-10-10T03:23:15.302Z,12.60
2017-10-10T03:25:44.793Z,12.60
2017-10-10T03:28:13.762Z,12.60
2017-10-10T03:30:42.730Z,12.60
2017-10-10T03:33:12.465Z,12.60
2017-10-10T03:35:41.560Z,12.50
2017-10-10T03:38:10.553Z,12.50
2017-10-10T03:40:39.530Z,12.60
2017-10-10T03:43:09.258Z,12.60
2017-10-10T03:45:39.016Z,12.70
2017-10-10T03:48:07.994Z,12.70
2017-10-10T03:50:36.945Z,12.60
2017-10-10T03:53:05.936Z,12.50
2017-10-10T03:55:34.914Z,12.50
2017-10-10T03:58:04.648Z,12.60
2017-10-10T04:00:33.648Z,12.60
2017-10-10T04:03:02.607Z,12.80
2017-10-10T04:05:31.636Z,12.80
2017-10-10T04:08:00.603Z,12.70
2017-10-10T04:10:30.369Z,12.70
2017-10-10T04:12:59.406Z,12.70
2017-10-10T04:15:28.376Z,12.70
2017-10-10T04:17:58.132Z,12.70
2017-10-10T04:20:27.100Z,12.70
2017-10-10T04:22:56.065Z,12.50
2017-10-10T04:25:25.820Z,12.60
2017-10-10T04:27:55.560Z,12.60
2017-10-10T04:30:26.361Z,12.60
2017-10-10T04:32:55.313Z,12.60
2017-10-10T04:35:25.080Z,12.60
2017-10-10T04:37:54.431Z,12.50
2017-10-10T04:40:24.187Z,12.50
2017-10-10T04:42:53.137Z,12.50
2017-10-10T04:45:22.898Z,12.70
2017-10-10T04:47:51.854Z,12.60
2017-10-10T04:50:20.836Z,12.70
2017-10-10T04:52:50.549Z,12.60
2017-10-10T04:55:19.538Z,12.60
2017-10-10T04:57:48.509Z,12.60
2017-10-10T05:00:18.965Z,12.60
2017-10-10T05:02:47.928Z,12.70
2017-10-10T05:05:17.686Z,12.70
2017-10-10T05:07:46.730Z,12.80
2017-10-10T05:10:15.672Z,12.80
2017-10-10T05:12:44.717Z,12.80
2017-10-10T05:15:14.439Z,12.80
2017-10-10T05:17:43.448Z,12.90
2017-10-10T05:20:12.411Z,12.80
2017-10-10T05:22:42.161Z,12.70
2017-10-10T05:25:11.509Z,12.70
2017-10-10T05:27:41.248Z,12.80
2017-10-10T05:30:10.231Z,12.80
2017-10-10T05:32:39.243Z,12.90
2017-10-10T05:35:08.188Z,12.90
2017-10-10T05:37:37.159Z,12.90
2017-10-10T05:40:06.358Z,13.00
2017-10-10T05:42:35.791Z,12.80
2017-10-10T05:45:05.512Z,12.80
2017-10-10T05:47:34.496Z,12.80
2017-10-10T05:50:03.863Z,12.90
2017-10-10T05:52:33.624Z,12.80
2017-10-10T05:55:02.694Z,12.80
2017-10-10T05:57:32.068Z,12.80
2017-10-10T06:00:01.039Z,12.90
2017-10-10T06:02:30.040Z,12.80
2017-10-10T06:04:59.757Z,12.90
2017-10-10T06:07:28.736Z,12.80
2017-10-10T06:09:58.423Z,13.00
2017-10-10T06:12:27.579Z,12.90
2017-10-10T06:14:57.300Z,12.90
2017-10-10T06:17:27.064Z,13.10
2017-10-10T06:19:56.004Z,13.10
2017-10-10T06:22:25.002Z,13.00
2017-10-10T06:24:54.366Z,13.00
2017-10-10T06:27:23.341Z,13.10
2017-10-10T06:29:52.700Z,13.10
2017-10-10T06:32:21.670Z,13.00
2017-10-10T06:34:51.405Z,13.00
2017-10-10T06:37:21.405Z,12.90
2017-10-10T06:39:51.284Z,12.90
2017-10-10T06:42:20.249Z,13.00
2017-10-10T06:44:49.645Z,13.10
2017-10-10T06:47:18.616Z,13.10
2017-10-10T06:49:47.584Z,13.20
2017-10-10T06:52:16.964Z,13.30
2017-10-10T06:54:46.002Z,13.20
2017-10-10T06:57:14.964Z,13.20
2017-10-10T06:59:44.752Z,13.20
2017-10-10T07:02:13.713Z,13.10
2017-10-10T07:04:42.761Z,13.00
2017-10-10T07:07:11.715Z,13.10
2017-10-10T07:09:41.492Z,13.00
2017-10-10T07:12:10.475Z,13.20
2017-10-10T07:14:39.452Z,13.20
2017-10-10T07:17:08.812Z,13.20
2017-10-10T07:19:37.785Z,13.20
2017-10-10T07:22:06.745Z,13.20
2017-10-10T07:24:36.584Z,13.30
2017-10-10T07:27:05.545Z,13.30
2017-10-10T07:29:34.540Z,13.30
2017-10-10T07:32:03.556Z,13.30
2017-10-10T07:34:32.540Z,13.40
2017-10-10T07:37:01.897Z,13.50
2017-10-10T07:39:30.892Z,13.50
2017-10-10T07:41:59.835Z,13.60
2017-10-10T07:44:28.812Z,13.70
2017-10-10T07:46:57.774Z,13.90
2017-10-10T07:49:27.517Z,14.00
2017-10-10T07:51:56.468Z,14.00
2017-10-10T07:54:26.203Z,13.90
2017-10-10T07:56:55.214Z,13.80
2017-10-10T07:59:25.038Z,13.60
2017-10-10T08:01:54.013Z,13.70
2017-10-10T08:04:24.758Z,13.90
2017-10-10T08:06:54.626Z,14.10
2017-10-10T08:09:24.320Z,14.10
2017-10-10T08:11:53.318Z,14.00
2017-10-10T08:14:23.531Z,13.90
2017-10-10T08:16:52.541Z,14.00
2017-10-10T08:19:22.492Z,14.00
2017-10-10T08:21:52.269Z,14.00
2017-10-10T08:24:22.236Z,13.90
2017-10-10T08:26:51.502Z,14.00
2017-10-10T08:29:21.799Z,13.90
2017-10-10T08:31:52.315Z,13.80
2017-10-10T08:34:22.981Z,14.00
2017-10-10T08:36:52.724Z,14.20
2017-10-10T08:39:23.952Z,14.30
2017-10-10T08:41:52.987Z,14.50
2017-10-10T08:44:23.283Z,14.70
2017-10-10T08:46:53.424Z,14.50
2017-10-10T08:49:24.321Z,14.40
2017-10-10T08:51:53.295Z,14.30
2017-10-10T08:54:22.420Z,14.40
2017-10-10T08:56:51.994Z,14.50
2017-10-10T08:59:21.046Z,14.50
2017-10-10T09:01:50.920Z,14.70
2017-10-10T09:04:22.652Z,14.70
2017-10-10T09:06:52.249Z,14.70
2017-10-10T09:09:21.929Z,14.50
2017-10-10T09:11:50.943Z,14.50
2017-10-10T09:14:20.692Z,14.60
2017-10-10T09:16:50.421Z,14.60
2017-10-10T09:19:19.459Z,14.50
2017-10-10T09:21:48.472Z,14.50
2017-10-10T09:24:17.464Z,14.50
2017-10-10T09:26:46.647Z,14.80
2017-10-10T09:29:16.379Z,15.10
2017-10-10T09:31:46.780Z,15.20
2017-10-10T09:34:16.585Z,15.00
2017-10-10T09:36:45.597Z,15.00
2017-10-10T09:39:15.352Z,15.10
2017-10-10T09:41:48.873Z,15.30
2017-10-10T09:44:18.698Z,15.20
2017-10-10T09:46:48.442Z,14.90
2017-10-10T09:49:17.840Z,14.90
2017-10-10T09:54:23.514Z,15.20
2017-10-10T09:56:52.470Z,15.30
2017-10-10T09:59:21.420Z,15.70
2017-10-10T10:01:50.475Z,15.80
2017-10-10T10:04:19.451Z,15.80
2017-10-10T10:06:49.202Z,15.70
2017-10-10T10:09:18.171Z,15.80
2017-10-10T10:11:47.545Z,16.00
2017-10-10T10:14:17.309Z,16.00
2017-10-10T10:16:46.782Z,16.10
2017-10-10T10:19:15.789Z,16.10
2017-10-10T10:21:44.729Z,16.60
2017-10-10T10:24:14.481Z,16.50
2017-10-10T10:26:43.469Z,16.60
2017-10-10T10:29:12.428Z,16.50
2017-10-10T10:31:42.170Z,16.40
2017-10-10T10:34:11.635Z,16.10
2017-10-10T10:36:40.605Z,16.00
2017-10-10T10:39:09.592Z,16.00
2017-10-10T10:41:38.993Z,16.30
2017-10-10T10:44:08.368Z,16.20
2017-10-10T10:46:37.364Z,16.10
2017-10-10T10:49:06.309Z,16.10
2017-10-10T10:51:36.064Z,16.00
2017-10-10T10:54:05.821Z,16.00
2017-10-10T10:56:35.575Z,16.10
2017-10-10T10:59:04.938Z,15.90
2017-10-10T11:01:34.800Z,16.20
2017-10-10T11:04:03.796Z,16.00
2017-10-10T11:06:32.886Z,15.80
2017-10-10T11:09:01.877Z,15.90
2017-10-10T11:11:30.889Z,16.00
2017-10-10T11:13:59.852Z,15.90
2017-10-10T11:16:28.867Z,15.70
2017-10-10T11:18:57.817Z,15.50
2017-10-10T11:21:26.811Z,15.30
2017-10-10T11:23:55.776Z,15.20
2017-10-10T11:26:24.752Z,15.10
2017-10-10T11:28:57.485Z,15.00
2017-10-10T11:31:35.373Z,14.90
2017-10-10T11:34:04.737Z,14.90
2017-10-10T11:36:33.723Z,15.00
2017-10-10T11:39:02.687Z,14.80
2017-10-10T11:41:31.671Z,14.80
2017-10-10T11:44:00.644Z,14.80
2017-10-10T11:46:29.635Z,14.70
2017-10-10T11:48:58.601Z,14.70
2017-10-10T11:51:28.331Z,14.70
2017-10-10T11:53:57.316Z,14.60
2017-10-10T11:56:26.684Z,14.60
2017-10-10T11:58:56.369Z,14.50
2017-10-10T12:01:25.368Z,14.40
2017-10-10T12:03:54.377Z,14.30
2017-10-10T12:06:23.342Z,14.30
2017-10-10T12:08:52.324Z,14.30
2017-10-10T12:11:21.309Z,14.30
2017-10-10T12:13:50.686Z,14.20
2017-10-10T12:16:19.668Z,14.30
2017-10-10T12:18:48.637Z,14.50
2017-10-10T12:21:17.613Z,14.40
2017-10-10T12:23:46.615Z,14.40
2017-10-10T12:26:15.604Z,14.50
2017-10-10T12:28:44.588Z,14.40
2017-10-10T12:31:13.553Z,14.40
2017-10-10T12:33:42.700Z,14.30
2017-10-10T12:36:12.461Z,14.40
2017-10-10T12:38:41.447Z,14.30
2017-10-10T12:41:10.425Z,14.40
2017-10-10T12:43:39.877Z,14.60
2017-10-10T12:46:08.834Z,14.50
2017-10-10T12:48:37.852Z,14.50
2017-10-10T12:51:07.570Z,14.40
2017-10-10T12:53:36.565Z,14.40
2017-10-10T12:56:05.529Z,14.30
2017-10-10T12:58:34.541Z,14.20
2017-10-10T13:01:03.506Z,14.20
2017-10-10T13:03:32.525Z,14.20
2017-10-10T13:06:01.529Z,14.30
2017-10-10T13:08:30.900Z,14.20
2017-10-10T13:10:59.920Z,14.20
2017-10-10T13:13:29.548Z,14.20
2017-10-10T13:15:59.279Z,14.20
2017-10-10T13:18:28.272Z,14.20
2017-10-10T13:20:57.241Z,14.30
2017-10-10T13:23:27.093Z,14.30
2017-10-10T13:25:56.875Z,14.40
2017-10-10T13:28:25.845Z,14.30
2017-10-10T13:30:54.826Z,14.30
2017-10-10T13:33:25.315Z,14.20
2017-10-10T13:35:54.264Z,14.30
2017-10-10T13:38:24.048Z,14.20
2017-10-10T13:40:52.995Z,14.10
2017-10-10T13:43:22.002Z,14.20
2017-10-10T13:45:51.360Z,14.00
2017-10-10T13:48:21.114Z,14.10
2017-10-10T13:50:50.474Z,14.10
2017-10-10T13:53:19.889Z,14.20
2017-10-10T13:55:49.625Z,14.10
2017-10-10T13:58:18.622Z,14.10
2017-10-10T14:00:47.591Z,14.10
2017-10-10T14:03:16.585Z,14.00
2017-10-10T14:05:45.539Z,13.90
2017-10-10T14:08:15.308Z,13.90
2017-10-10T14:10:44.344Z,14.00
2017-10-10T14:13:13.328Z,14.00
2017-10-10T14:15:43.075Z,14.10
2017-10-10T14:18:12.057Z,14.10
2017-10-10T14:20:41.041Z,14.20
2017-10-10T14:23:10.415Z,14.10
2017-10-10T14:25:39.434Z,14.20
2017-10-10T14:28:08.427Z,14.20
2017-10-10T14:30:37.388Z,14.10
2017-10-10T14:33:06.759Z,14.10
2017-10-10T14:35:36.548Z,14.20
2017-10-10T14:38:05.539Z,14.20
2017-10-10T14:40:34.509Z,14.30
2017-10-10T14:43:04.261Z,14.30
2017-10-10T14:45:33.404Z,14.40
2017-10-10T14:48:03.150Z,14.50
2017-10-10T14:50:32.125Z,14.50
2017-10-10T14:53:01.922Z,14.40
2017-10-10T14:55:31.653Z,14.30
2017-10-10T14:58:00.645Z,14.30
2017-10-10T15:00:29.641Z,14.30
2017-10-10T15:02:59.499Z,14.30
2017-10-10T15:05:28.445Z,14.30
2017-10-10T15:07:58.326Z,14.20
2017-10-10T15:10:28.481Z,14.20
2017-10-10T15:12:57.688Z,14.20
2017-10-10T15:15:26.703Z,14.20
2017-10-10T15:17:55.730Z,14.20
2017-10-10T15:20:25.463Z,14.20
2017-10-10T15:22:55.976Z,14.20
2017-10-10T15:25:26.346Z,14.20
2017-10-10T15:27:56.836Z,14.30
2017-10-10T15:30:25.793Z,14.30
2017-10-10T15:32:54.818Z,14.40
2017-10-10T15:35:25.827Z,14.30
2017-10-10T15:37:55.601Z,14.30
2017-10-10T15:40:24.566Z,14.30
2017-10-10T15:42:53.946Z,14.30
2017-10-10T15:45:22.912Z,14.30
2017-10-10T15:47:52.298Z,14.20
2017-10-10T15:50:21.254Z,14.30
2017-10-10T15:52:50.637Z,14.30
2017-10-10T15:55:19.619Z,14.20
2017-10-10T15:57:49.417Z,14.20
2017-10-10T16:00:18.373Z,14.20
2017-10-10T16:02:48.024Z,14.30
2017-10-10T16:05:17.753Z,14.20
2017-10-10T16:07:48.087Z,14.20
2017-10-10T16:10:17.756Z,14.30
2017-10-10T16:12:46.749Z,14.30
2017-10-10T16:15:15.721Z,14.20
2017-10-10T16:17:44.713Z,14.20
2017-10-10T16:20:13.681Z,14.20
2017-10-10T16:22:43.869Z,14.20
2017-10-10T16:25:12.970Z,14.20
2017-10-10T16:27:41.981Z,14.30
2017-10-10T16:30:11.900Z,14.30
2017-10-10T16:32:41.907Z,14.20
2017-10-10T16:35:10.861Z,14.30
2017-10-10T16:37:39.848Z,14.20
2017-10-10T16:40:08.853Z,14.30
2017-10-10T16:42:38.616Z,14.30
2017-10-10T16:45:07.601Z,14.30
2017-10-10T16:47:36.592Z,14.30
2017-10-10T16:50:05.554Z,14.20
2017-10-10T16:52:35.014Z,14.30
2017-10-10T16:55:04.751Z,14.30
2017-10-10T16:57:34.516Z,14.40
2017-10-10T17:00:03.573Z,14.30
2017-10-10T17:02:32.984Z,14.20
2017-10-10T17:05:02.716Z,14.20
2017-10-10T17:07:32.113Z,14.20
2017-10-10T17:10:01.116Z,14.10
2017-10-10T17:12:30.081Z,14.20
2017-10-10T17:14:59.860Z,14.20
2017-10-10T17:17:29.249Z,14.30
2017-10-10T17:19:58.980Z,14.20
2017-10-10T17:22:28.817Z,14.30
2017-10-10T17:24:57.788Z,14.20
2017-10-10T17:27:27.173Z,14.20
2017-10-10T17:29:56.610Z,14.10
2017-10-10T17:32:26.678Z,14.10
2017-10-10T17:34:55.792Z,14.10
2017-10-10T17:37:24.889Z,14.20
2017-10-10T17:39:53.932Z,14.20
2017-10-10T17:42:23.693Z,14.10
2017-10-10T17:44:52.774Z,14.10
2017-10-10T17:47:21.958Z,14.10
2017-10-10T17:49:51.355Z,14.00
2017-10-10T17:52:20.761Z,14.00
2017-10-10T17:54:49.875Z,14.00
2017-10-10T17:57:18.871Z,14.10
2017-10-10T17:59:48.063Z,14.10
2017-10-10T18:02:17.570Z,14.00
2017-10-10T18:04:47.371Z,14.10
2017-10-10T18:07:16.795Z,14.10
2017-10-10T18:09:45.803Z,14.10
2017-10-10T18:12:14.832Z,14.30
2017-10-10T18:14:43.841Z,14.30
2017-10-10T18:17:13.237Z,14.40
2017-10-10T18:19:42.294Z,14.20
2017-10-10T18:22:11.695Z,14.30
2017-10-10T18:24:40.706Z,14.30
2017-10-10T18:27:10.621Z,14.30
2017-10-10T18:29:39.665Z,14.30
2017-10-10T18:32:09.173Z,14.30
2017-10-10T18:34:38.353Z,14.40
2017-10-10T18:37:08.150Z,14.40
2017-10-10T18:39:37.982Z,14.30
2017-10-10T18:42:07.018Z,14.30
2017-10-10T18:44:36.776Z,14.30
2017-10-10T18:47:06.241Z,14.30
2017-10-10T18:49:35.349Z,14.30
2017-10-10T18:52:04.360Z,14.30
2017-10-10T18:54:33.383Z,14.40
2017-10-10T18:57:03.175Z,14.40
2017-10-10T18:59:32.961Z,14.40
2017-10-10T19:02:02.850Z,14.40
2017-10-10T19:04:31.837Z,14.30
2017-10-10T19:07:01.546Z,14.30
2017-10-10T19:09:30.619Z,14.30
2017-10-10T19:11:59.697Z,14.50
2017-10-10T19:14:28.815Z,14.40
2017-10-10T19:16:58.801Z,14.30
2017-10-10T19:19:27.983Z,14.40
2017-10-10T19:21:57.003Z,14.30
2017-10-10T19:24:26.013Z,14.30
2017-10-10T19:26:55.028Z,14.30
2017-10-10T19:29:24.018Z,14.30
2017-10-10T19:31:55.925Z,14.30
2017-10-10T19:34:25.692Z,14.40
2017-10-10T19:36:54.762Z,14.40
2017-10-10T19:39:24.580Z,14.40
2017-10-10T19:41:53.600Z,14.50
2017-10-10T19:44:22.620Z,14.50
2017-10-10T19:46:51.696Z,14.40
2017-10-10T19:49:21.450Z,14.40
2017-10-10T19:51:50.508Z,14.30
2017-10-10T19:54:20.267Z,14.30
2017-10-10T19:56:50.420Z,14.30
2017-10-10T19:59:19.397Z,14.30
2017-10-10T20:01:48.400Z,14.30
2017-10-10T20:04:17.435Z,14.30
2017-10-10T20:06:46.841Z,14.40
2017-10-10T20:09:16.765Z,14.30
2017-10-10T20:11:45.779Z,14.30
2017-10-10T20:14:14.848Z,14.40
2017-10-10T20:16:43.892Z,14.30
2017-10-10T20:19:13.731Z,14.40
2017-10-10T20:21:42.702Z,14.40
2017-10-10T20:24:11.761Z,14.40
2017-10-10T20:26:41.533Z,14.40
2017-10-10T20:29:10.572Z,14.30
2017-10-10T20:31:40.019Z,14.30
2017-10-10T20:34:09.429Z,14.30
2017-10-10T20:36:38.434Z,14.20
2017-10-10T20:39:07.435Z,14.20
2017-10-10T20:41:36.918Z,14.10
2017-10-10T20:44:06.329Z,14.20
2017-10-10T20:46:35.703Z,14.20
2017-10-10T20:49:05.480Z,14.30
2017-10-10T20:51:34.475Z,14.10
2017-10-10T20:54:03.479Z,14.10
2017-10-10T20:56:32.440Z,14.20
2017-10-10T20:59:01.833Z,14.20
2017-10-10T21:01:31.573Z,14.10
2017-10-10T21:04:00.992Z,14.20
2017-10-10T21:06:29.937Z,14.20
2017-10-10T21:08:58.926Z,14.10
2017-10-10T21:11:27.923Z,14.20
2017-10-10T21:13:57.694Z,14.10
2017-10-10T21:16:27.049Z,14.20
2017-10-10T21:18:56.124Z,14.20
2017-10-10T21:21:25.646Z,14.20
2017-10-10T21:23:55.469Z,14.10
2017-10-10T21:26:24.511Z,14.00
2017-10-10T21:28:53.460Z,14.10
2017-10-10T21:31:22.578Z,14.00
2017-10-10T21:33:52.308Z,14.00
2017-10-10T21:36:21.685Z,14.10
2017-10-10T21:38:52.160Z,14.10
2017-10-10T21:41:22.358Z,14.10
2017-10-10T21:43:51.328Z,14.10
2017-10-10T21:46:21.072Z,14.20
2017-10-10T21:48:50.032Z,14.20
2017-10-10T21:51:19.798Z,14.20
2017-10-10T21:53:48.767Z,14.10
2017-10-10T21:56:17.751Z,14.10
2017-10-10T21:58:46.704Z,14.00
2017-10-10T22:01:16.453Z,14.10
2017-10-10T22:03:45.463Z,14.00
2017-10-10T22:06:14.523Z,13.90
2017-10-10T22:08:44.299Z,14.00
2017-10-10T22:11:13.686Z,13.90
2017-10-10T22:13:42.886Z,14.00
2017-10-10T22:16:12.626Z,13.90
2017-10-10T22:18:41.584Z,13.90
2017-10-10T22:21:10.591Z,13.90
2017-10-10T22:23:39.604Z,14.00
2017-10-10T22:26:08.597Z,13.90
2017-10-10T22:28:37.938Z,13.90
2017-10-10T22:31:07.725Z,13.90
2017-10-10T22:33:37.724Z,13.90
2017-10-10T22:36:07.467Z,13.90
2017-10-10T22:38:36.473Z,14.00
2017-10-10T22:41:05.515Z,14.00
2017-10-10T22:43:34.455Z,14.00
2017-10-10T22:46:05.884Z,14.10
2017-10-10T22:48:34.828Z,14.00
2017-10-10T22:51:04.392Z,14.10
2017-10-10T22:53:33.774Z,14.10
2017-10-10T22:56:02.829Z,14.10
2017-10-10T22:58:31.808Z,14.10
2017-10-10T23:01:00.807Z,14.10
2017-10-10T23:03:29.787Z,14.10
2017-10-10T23:05:58.734Z,14.20
2017-10-10T23:08:28.799Z,14.20
2017-10-10T23:10:58.545Z,14.20
2017-10-10T23:13:28.344Z,14.20
2017-10-10T23:15:57.757Z,14.20
2017-10-10T23:18:27.518Z,14.20
2017-10-10T23:20:56.556Z,14.10
2017-10-10T23:23:26.311Z,14.20
2017-10-10T23:25:55.665Z,14.20
2017-10-10T23:28:25.438Z,14.20
2017-10-10T23:30:54.418Z,14.20
2017-10-10T23:33:23.767Z,14.10
2017-10-10T23:35:54.544Z,14.10
2017-10-10T23:38:23.592Z,14.10
2017-10-10T23:40:52.550Z,14.10
2017-10-10T23:43:21.527Z,14.10
2017-10-10T23:45:50.912Z,14.20
2017-10-10T23:48:19.908Z,14.20
2017-10-10T23:50:49.259Z,14.20
2017-10-10T23:53:19.005Z,14.30
2017-10-10T23:55:48.730Z,14.30
2017-10-10T23:58:17.726Z,14.40
